sensor_id;sensor_type;location;lat;lon;timestamp;P1;durP1;ratioP1;P2;durP2;ratioP2
25409;SDS011;13339;50.840;4.346;2023-02-28T00:00:21;7.03;;;4.70;;
25409;SDS011;13339;50.840;4.346;2023-02-28T00:02:47;8.30;;;4.63;;
25409;SDS011;13339;50.840;4.346;2023-02-28T00:05:15;10.70;;;5.17;;
25409;SDS011;13339;50.840;4.346;2023-02-28T00:07:46;9.50;;;4.80;;
25409;SDS011;13339;50.840;4.346;2023-02-28T00:10:13;6.40;;;4.33;;
25409;SDS011;13339;50.840;4.346;2023-02-28T00:12:44;8.53;;;5.23;;
25409;SDS011;13339;50.840;4.346;2023-02-28T00:15:09;10.83;;;5.90;;
25409;SDS011;13339;50.840;4.346;2023-02-28T00:17:36;11.53;;;6.47;;
25409;SDS011;13339;50.840;4.346;2023-02-28T00:20:02;12.83;;;6.83;;
25409;SDS011;13339;50.840;4.346;2023-02-28T00:22:29;14.47;;;6.00;;
25409;SDS011;13339;50.840;4.346;2023-02-28T00:24:55;13.40;;;6.33;;
25409;SDS011;13339;50.840;4.346;2023-02-28T00:27:21;9.83;;;5.73;;
25409;SDS011;13339;50.840;4.346;2023-02-28T00:29:47;9.90;;;5.33;;
25409;SDS011;13339;50.840;4.346;2023-02-28T00:32:13;10.23;;;5.40;;
25409;SDS011;13339;50.840;4.346;2023-02-28T00:34:38;12.50;;;5.67;;
25409;SDS011;13339;50.840;4.346;2023-02-28T00:37:05;9.80;;;5.30;;
25409;SDS011;13339;50.840;4.346;2023-02-28T00:39:35;6.77;;;5.00;;
25409;SDS011;13339;50.840;4.346;2023-02-28T00:42:02;10.67;;;5.47;;
25409;SDS011;13339;50.840;4.346;2023-02-28T00:44:28;7.27;;;5.23;;
25409;SDS011;13339;50.840;4.346;2023-02-28T00:46:54;10.00;;;5.67;;
25409;SDS011;13339;50.840;4.346;2023-02-28T00:49:21;9.60;;;5.20;;
25409;SDS011;13339;50.840;4.346;2023-02-28T00:51:47;7.50;;;5.30;;
25409;SDS011;13339;50.840;4.346;2023-02-28T00:54:13;9.93;;;5.03;;
25409;SDS011;13339;50.840;4.346;2023-02-28T00:56:38;8.37;;;4.70;;
25409;SDS011;13339;50.840;4.346;2023-02-28T00:59:04;13.43;;;5.27;;
25409;SDS011;13339;50.840;4.346;2023-02-28T01:01:30;11.43;;;5.57;;
25409;SDS011;13339;50.840;4.346;2023-02-28T01:03:57;11.20;;;5.33;;
25409;SDS011;13339;50.840;4.346;2023-02-28T01:06:22;9.37;;;4.80;;
25409;SDS011;13339;50.840;4.346;2023-02-28T01:08:48;11.90;;;5.60;;
25409;SDS011;13339;50.840;4.346;2023-02-28T01:11:15;12.27;;;5.20;;
25409;SDS011;13339;50.840;4.346;2023-02-28T01:13:42;8.30;;;5.70;;
25409;SDS011;13339;50.840;4.346;2023-02-28T01:16:09;10.67;;;5.37;;
25409;SDS011;13339;50.840;4.346;2023-02-28T01:18:35;10.00;;;5.33;;
25409;SDS011;13339;50.840;4.346;2023-02-28T01:21:05;10.37;;;5.23;;
25409;SDS011;13339;50.840;4.346;2023-02-28T01:23:31;10.60;;;5.20;;
25409;SDS011;13339;50.840;4.346;2023-02-28T01:25:58;9.53;;;5.90;;
25409;SDS011;13339;50.840;4.346;2023-02-28T01:28:32;9.07;;;5.57;;
25409;SDS011;13339;50.840;4.346;2023-02-28T01:30:58;9.93;;;5.90;;
25409;SDS011;13339;50.840;4.346;2023-02-28T01:33:24;10.57;;;6.00;;
25409;SDS011;13339;50.840;4.346;2023-02-28T01:35:56;16.00;;;5.90;;
25409;SDS011;13339;50.840;4.346;2023-02-28T01:38:26;10.20;;;5.30;;
25409;SDS011;13339;50.840;4.346;2023-02-28T01:40:51;9.53;;;5.77;;
25409;SDS011;13339;50.840;4.346;2023-02-28T01:45:55;11.50;;;5.60;;
25409;SDS011;13339;50.840;4.346;2023-02-28T01:48:23;9.40;;;5.80;;
25409;SDS011;13339;50.840;4.346;2023-02-28T01:50:52;8.10;;;5.30;;
25409;SDS011;13339;50.840;4.346;2023-02-28T01:53:21;10.07;;;5.50;;
25409;SDS011;13339;50.840;4.346;2023-02-28T01:55:52;10.23;;;6.47;;
25409;SDS011;13339;50.840;4.346;2023-02-28T01:58:19;12.93;;;5.90;;
25409;SDS011;13339;50.840;4.346;2023-02-28T02:00:45;9.40;;;6.10;;
25409;SDS011;13339;50.840;4.346;2023-02-28T02:03:14;10.67;;;6.13;;
25409;SDS011;13339;50.840;4.346;2023-02-28T02:05:43;12.27;;;6.70;;
25409;SDS011;13339;50.840;4.346;2023-02-28T02:08:13;10.13;;;6.37;;
25409;SDS011;13339;50.840;4.346;2023-02-28T02:10:43;13.00;;;6.67;;
25409;SDS011;13339;50.840;4.346;2023-02-28T02:16:23;9.17;;;5.60;;
25409;SDS011;13339;50.840;4.346;2023-02-28T02:25:21;7.63;;;5.90;;
25409;SDS011;13339;50.840;4.346;2023-02-28T02:36:06;11.90;;;6.60;;
25409;SDS011;13339;50.840;4.346;2023-02-28T02:38:47;8.87;;;5.93;;
25409;SDS011;13339;50.840;4.346;2023-02-28T02:41:37;9.97;;;7.07;;
25409;SDS011;13339;50.840;4.346;2023-02-28T02:47:15;11.80;;;6.60;;
25409;SDS011;13339;50.840;4.346;2023-02-28T02:49:46;11.77;;;6.60;;
25409;SDS011;13339;50.840;4.346;2023-02-28T02:52:16;10.80;;;7.77;;
25409;SDS011;13339;50.840;4.346;2023-02-28T02:54:46;11.20;;;7.57;;
25409;SDS011;13339;50.840;4.346;2023-02-28T02:57:20;13.97;;;7.17;;
25409;SDS011;13339;50.840;4.346;2023-02-28T02:59:49;13.13;;;7.20;;
25409;SDS011;13339;50.840;4.346;2023-02-28T03:02:18;17.97;;;7.40;;
25409;SDS011;13339;50.840;4.346;2023-02-28T03:04:47;12.27;;;7.17;;
25409;SDS011;13339;50.840;4.346;2023-02-28T03:07:19;14.47;;;7.53;;
25409;SDS011;13339;50.840;4.346;2023-02-28T03:09:51;11.60;;;6.73;;
25409;SDS011;13339;50.840;4.346;2023-02-28T03:12:17;12.87;;;6.97;;
25409;SDS011;13339;50.840;4.346;2023-02-28T03:14:46;9.77;;;7.53;;
25409;SDS011;13339;50.840;4.346;2023-02-28T03:28:17;15.80;;;8.30;;
25409;SDS011;13339;50.840;4.346;2023-02-28T03:30:49;11.47;;;7.57;;
25409;SDS011;13339;50.840;4.346;2023-02-28T03:35:50;14.47;;;8.10;;
25409;SDS011;13339;50.840;4.346;2023-02-28T03:41:04;13.93;;;8.57;;
25409;SDS011;13339;50.840;4.346;2023-02-28T03:43:35;13.37;;;8.00;;
25409;SDS011;13339;50.840;4.346;2023-02-28T03:46:07;14.07;;;8.20;;
25409;SDS011;13339;50.840;4.346;2023-02-28T03:48:45;16.93;;;8.40;;
25409;SDS011;13339;50.840;4.346;2023-02-28T03:51:17;14.40;;;7.90;;
25409;SDS011;13339;50.840;4.346;2023-02-28T03:53:49;15.67;;;8.23;;
25409;SDS011;13339;50.840;4.346;2023-02-28T04:01:30;17.10;;;8.47;;
25409;SDS011;13339;50.840;4.346;2023-02-28T04:03:57;17.17;;;8.80;;
25409;SDS011;13339;50.840;4.346;2023-02-28T04:06:23;13.37;;;7.90;;
25409;SDS011;13339;50.840;4.346;2023-02-28T04:08:49;13.43;;;8.50;;
25409;SDS011;13339;50.840;4.346;2023-02-28T04:11:23;13.60;;;8.77;;
25409;SDS011;13339;50.840;4.346;2023-02-28T04:14:00;20.87;;;8.77;;
25409;SDS011;13339;50.840;4.346;2023-02-28T04:16:27;14.40;;;8.23;;
25409;SDS011;13339;50.840;4.346;2023-02-28T04:18:53;13.33;;;8.67;;
25409;SDS011;13339;50.840;4.346;2023-02-28T04:21:18;15.10;;;8.13;;
25409;SDS011;13339;50.840;4.346;2023-02-28T04:23:47;14.07;;;8.00;;
25409;SDS011;13339;50.840;4.346;2023-02-28T04:26:12;12.60;;;8.53;;
25409;SDS011;13339;50.840;4.346;2023-02-28T04:28:38;18.93;;;9.67;;
25409;SDS011;13339;50.840;4.346;2023-02-28T04:31:04;14.40;;;8.33;;
25409;SDS011;13339;50.840;4.346;2023-02-28T04:33:31;21.17;;;9.00;;
25409;SDS011;13339;50.840;4.346;2023-02-28T04:36:07;15.33;;;8.90;;
25409;SDS011;13339;50.840;4.346;2023-02-28T04:38:34;26.90;;;9.87;;
25409;SDS011;13339;50.840;4.346;2023-02-28T04:41:01;14.30;;;8.60;;
25409;SDS011;13339;50.840;4.346;2023-02-28T04:43:27;13.57;;;8.70;;
25409;SDS011;13339;50.840;4.346;2023-02-28T04:45:54;13.97;;;8.57;;
25409;SDS011;13339;50.840;4.346;2023-02-28T04:48:24;14.70;;;9.17;;
25409;SDS011;13339;50.840;4.346;2023-02-28T04:50:52;13.40;;;8.70;;
25409;SDS011;13339;50.840;4.346;2023-02-28T04:53:17;15.00;;;9.17;;
25409;SDS011;13339;50.840;4.346;2023-02-28T04:55:43;12.73;;;8.90;;
25409;SDS011;13339;50.840;4.346;2023-02-28T04:58:09;15.10;;;9.27;;
25409;SDS011;13339;50.840;4.346;2023-02-28T05:00:35;18.23;;;9.10;;
25409;SDS011;13339;50.840;4.346;2023-02-28T05:03:01;15.07;;;9.23;;
25409;SDS011;13339;50.840;4.346;2023-02-28T05:05:26;15.67;;;8.83;;
25409;SDS011;13339;50.840;4.346;2023-02-28T05:07:52;15.33;;;8.70;;
25409;SDS011;13339;50.840;4.346;2023-02-28T05:10:18;13.57;;;8.57;;
25409;SDS011;13339;50.840;4.346;2023-02-28T05:12:44;15.00;;;8.90;;
25409;SDS011;13339;50.840;4.346;2023-02-28T05:15:12;12.30;;;8.53;;
25409;SDS011;13339;50.840;4.346;2023-02-28T05:17:39;13.47;;;8.93;;
25409;SDS011;13339;50.840;4.346;2023-02-28T05:20:05;13.10;;;9.17;;
25409;SDS011;13339;50.840;4.346;2023-02-28T05:22:31;14.77;;;8.77;;
25409;SDS011;13339;50.840;4.346;2023-02-28T05:24:57;14.67;;;8.27;;
25409;SDS011;13339;50.840;4.346;2023-02-28T05:27:23;17.60;;;9.73;;
25409;SDS011;13339;50.840;4.346;2023-02-28T05:29:48;13.53;;;9.23;;
25409;SDS011;13339;50.840;4.346;2023-02-28T05:32:14;12.50;;;8.73;;
25409;SDS011;13339;50.840;4.346;2023-02-28T05:34:40;11.77;;;8.50;;
25409;SDS011;13339;50.840;4.346;2023-02-28T05:37:11;14.83;;;9.03;;
25409;SDS011;13339;50.840;4.346;2023-02-28T05:39:40;15.07;;;8.90;;
25409;SDS011;13339;50.840;4.346;2023-02-28T05:42:07;20.23;;;8.80;;
25409;SDS011;13339;50.840;4.346;2023-02-28T05:44:34;19.83;;;9.23;;
25409;SDS011;13339;50.840;4.346;2023-02-28T05:46:59;14.63;;;9.40;;
25409;SDS011;13339;50.840;4.346;2023-02-28T05:49:25;11.73;;;8.83;;
25409;SDS011;13339;50.840;4.346;2023-02-28T05:51:51;11.90;;;8.00;;
25409;SDS011;13339;50.840;4.346;2023-02-28T05:54:16;12.57;;;9.10;;
25409;SDS011;13339;50.840;4.346;2023-02-28T05:56:42;17.37;;;8.87;;
25409;SDS011;13339;50.840;4.346;2023-02-28T05:59:10;11.97;;;8.30;;
25409;SDS011;13339;50.840;4.346;2023-02-28T06:01:40;17.47;;;9.27;;
25409;SDS011;13339;50.840;4.346;2023-02-28T06:04:08;12.87;;;8.10;;
25409;SDS011;13339;50.840;4.346;2023-02-28T06:06:35;16.07;;;8.37;;
25409;SDS011;13339;50.840;4.346;2023-02-28T06:09:02;15.40;;;8.43;;
25409;SDS011;13339;50.840;4.346;2023-02-28T06:11:31;15.93;;;8.27;;
25409;SDS011;13339;50.840;4.346;2023-02-28T06:13:58;14.03;;;8.67;;
25409;SDS011;13339;50.840;4.346;2023-02-28T06:16:26;15.37;;;7.97;;
25409;SDS011;13339;50.840;4.346;2023-02-28T06:18:52;15.57;;;9.17;;
25409;SDS011;13339;50.840;4.346;2023-02-28T06:21:20;13.87;;;8.57;;
25409;SDS011;13339;50.840;4.346;2023-02-28T06:23:46;17.03;;;8.80;;
25409;SDS011;13339;50.840;4.346;2023-02-28T06:26:11;17.60;;;9.03;;
25409;SDS011;13339;50.840;4.346;2023-02-28T06:28:37;15.33;;;8.03;;
25409;SDS011;13339;50.840;4.346;2023-02-28T06:31:07;19.57;;;9.37;;
25409;SDS011;13339;50.840;4.346;2023-02-28T06:33:34;15.30;;;8.57;;
25409;SDS011;13339;50.840;4.346;2023-02-28T06:36:00;18.83;;;8.80;;
25409;SDS011;13339;50.840;4.346;2023-02-28T06:38:26;21.03;;;8.43;;
25409;SDS011;13339;50.840;4.346;2023-02-28T06:40:55;15.57;;;8.57;;
25409;SDS011;13339;50.840;4.346;2023-02-28T06:43:22;17.03;;;8.77;;
25409;SDS011;13339;50.840;4.346;2023-02-28T06:45:49;17.30;;;9.07;;
25409;SDS011;13339;50.840;4.346;2023-02-28T06:48:15;15.50;;;8.80;;
25409;SDS011;13339;50.840;4.346;2023-02-28T06:50:41;17.83;;;9.17;;
25409;SDS011;13339;50.840;4.346;2023-02-28T06:53:07;14.47;;;8.30;;
25409;SDS011;13339;50.840;4.346;2023-02-28T06:55:32;14.20;;;8.37;;
25409;SDS011;13339;50.840;4.346;2023-02-28T06:57:58;14.63;;;8.13;;
25409;SDS011;13339;50.840;4.346;2023-02-28T07:00:24;16.57;;;8.67;;
25409;SDS011;13339;50.840;4.346;2023-02-28T07:02:50;15.27;;;8.40;;
25409;SDS011;13339;50.840;4.346;2023-02-28T07:05:16;15.97;;;8.00;;
25409;SDS011;13339;50.840;4.346;2023-02-28T07:07:41;12.60;;;8.47;;
25409;SDS011;13339;50.840;4.346;2023-02-28T07:10:12;15.47;;;8.47;;
25409;SDS011;13339;50.840;4.346;2023-02-28T07:12:41;17.77;;;7.97;;
25409;SDS011;13339;50.840;4.346;2023-02-28T07:15:08;18.90;;;8.33;;
25409;SDS011;13339;50.840;4.346;2023-02-28T07:17:34;19.53;;;9.17;;
25409;SDS011;13339;50.840;4.346;2023-02-28T07:20:00;16.10;;;8.73;;
25409;SDS011;13339;50.840;4.346;2023-02-28T07:22:25;17.00;;;8.70;;
25409;SDS011;13339;50.840;4.346;2023-02-28T07:24:51;15.47;;;8.90;;
25409;SDS011;13339;50.840;4.346;2023-02-28T07:27:17;15.47;;;7.57;;
25409;SDS011;13339;50.840;4.346;2023-02-28T07:29:48;15.13;;;7.90;;
25409;SDS011;13339;50.840;4.346;2023-02-28T07:32:14;18.43;;;9.07;;
25409;SDS011;13339;50.840;4.346;2023-02-28T07:34:40;18.70;;;7.27;;
25409;SDS011;13339;50.840;4.346;2023-02-28T07:37:06;11.67;;;7.60;;
25409;SDS011;13339;50.840;4.346;2023-02-28T07:39:31;15.17;;;9.40;;
25409;SDS011;13339;50.840;4.346;2023-02-28T07:41:57;14.53;;;7.07;;
25409;SDS011;13339;50.840;4.346;2023-02-28T07:44:24;11.23;;;6.63;;
25409;SDS011;13339;50.840;4.346;2023-02-28T07:46:50;14.60;;;6.63;;
25409;SDS011;13339;50.840;4.346;2023-02-28T07:49:17;14.20;;;6.73;;
25409;SDS011;13339;50.840;4.346;2023-02-28T07:51:43;14.13;;;7.20;;
25409;SDS011;13339;50.840;4.346;2023-02-28T07:54:08;12.23;;;6.70;;
25409;SDS011;13339;50.840;4.346;2023-02-28T07:56:34;10.20;;;6.47;;
25409;SDS011;13339;50.840;4.346;2023-02-28T07:59:00;13.33;;;6.33;;
25409;SDS011;13339;50.840;4.346;2023-02-28T08:01:26;14.00;;;6.30;;
25409;SDS011;13339;50.840;4.346;2023-02-28T08:03:52;13.87;;;5.80;;
25409;SDS011;13339;50.840;4.346;2023-02-28T08:06:20;14.03;;;6.80;;
25409;SDS011;13339;50.840;4.346;2023-02-28T08:08:48;9.60;;;6.70;;
25409;SDS011;13339;50.840;4.346;2023-02-28T08:11:14;7.97;;;5.80;;
25409;SDS011;13339;50.840;4.346;2023-02-28T08:13:40;9.43;;;5.00;;
25409;SDS011;13339;50.840;4.346;2023-02-28T08:16:07;11.00;;;5.43;;
25409;SDS011;13339;50.840;4.346;2023-02-28T08:18:33;7.47;;;4.77;;
25409;SDS011;13339;50.840;4.346;2023-02-28T08:20:58;8.70;;;5.30;;
25409;SDS011;13339;50.840;4.346;2023-02-28T08:23:24;12.00;;;6.03;;
25409;SDS011;13339;50.840;4.346;2023-02-28T08:25:53;14.53;;;5.50;;
25409;SDS011;13339;50.840;4.346;2023-02-28T08:28:22;7.73;;;5.00;;
25409;SDS011;13339;50.840;4.346;2023-02-28T08:30:48;7.23;;;4.20;;
25409;SDS011;13339;50.840;4.346;2023-02-28T08:33:14;7.27;;;4.80;;
25409;SDS011;13339;50.840;4.346;2023-02-28T08:35:39;9.40;;;4.10;;
25409;SDS011;13339;50.840;4.346;2023-02-28T08:38:05;6.93;;;4.27;;
25409;SDS011;13339;50.840;4.346;2023-02-28T08:40:30;10.10;;;4.80;;
25409;SDS011;13339;50.840;4.346;2023-02-28T08:42:56;12.53;;;3.90;;
25409;SDS011;13339;50.840;4.346;2023-02-28T08:45:21;10.40;;;4.10;;
25409;SDS011;13339;50.840;4.346;2023-02-28T08:47:47;6.93;;;4.50;;
25409;SDS011;13339;50.840;4.346;2023-02-28T08:50:12;7.97;;;4.47;;
25409;SDS011;13339;50.840;4.346;2023-02-28T08:52:41;5.67;;;4.10;;
25409;SDS011;13339;50.840;4.346;2023-02-28T08:55:08;10.03;;;4.50;;
25409;SDS011;13339;50.840;4.346;2023-02-28T08:57:34;6.57;;;4.00;;
25409;SDS011;13339;50.840;4.346;2023-02-28T09:00:00;5.60;;;3.17;;
25409;SDS011;13339;50.840;4.346;2023-02-28T09:02:29;6.43;;;4.20;;
25409;SDS011;13339;50.840;4.346;2023-02-28T09:04:56;5.87;;;3.57;;
25409;SDS011;13339;50.840;4.346;2023-02-28T09:07:23;8.13;;;4.13;;
25409;SDS011;13339;50.840;4.346;2023-02-28T09:09:49;11.03;;;3.67;;
25409;SDS011;13339;50.840;4.346;2023-02-28T09:12:23;9.43;;;4.30;;
25409;SDS011;13339;50.840;4.346;2023-02-28T09:14:50;12.73;;;4.13;;
25409;SDS011;13339;50.840;4.346;2023-02-28T09:17:16;6.37;;;3.97;;
25409;SDS011;13339;50.840;4.346;2023-02-28T09:19:43;5.37;;;4.03;;
25409;SDS011;13339;50.840;4.346;2023-02-28T09:22:09;6.93;;;4.63;;
25409;SDS011;13339;50.840;4.346;2023-02-28T09:24:38;10.00;;;4.33;;
25409;SDS011;13339;50.840;4.346;2023-02-28T09:27:04;6.47;;;4.20;;
25409;SDS011;13339;50.840;4.346;2023-02-28T09:29:33;5.37;;;3.40;;
25409;SDS011;13339;50.840;4.346;2023-02-28T09:31:59;5.83;;;3.80;;
25409;SDS011;13339;50.840;4.346;2023-02-28T09:34:26;6.60;;;3.90;;
25409;SDS011;13339;50.840;4.346;2023-02-28T09:36:55;5.50;;;3.70;;
25409;SDS011;13339;50.840;4.346;2023-02-28T09:39:21;12.07;;;5.43;;
25409;SDS011;13339;50.840;4.346;2023-02-28T09:41:48;5.87;;;4.00;;
25409;SDS011;13339;50.840;4.346;2023-02-28T09:46:47;5.97;;;3.40;;
25409;SDS011;13339;50.840;4.346;2023-02-28T09:49:18;6.27;;;3.67;;
25409;SDS011;13339;50.840;4.346;2023-02-28T09:51:51;5.17;;;3.37;;
25409;SDS011;13339;50.840;4.346;2023-02-28T09:54:21;6.90;;;3.10;;
25409;SDS011;13339;50.840;4.346;2023-02-28T10:04:53;7.70;;;2.60;;
25409;SDS011;13339;50.840;4.346;2023-02-28T10:10:22;4.63;;;2.90;;
25409;SDS011;13339;50.840;4.346;2023-02-28T10:12:54;6.83;;;2.77;;
25409;SDS011;13339;50.840;4.346;2023-02-28T10:15:24;3.27;;;2.50;;
25409;SDS011;13339;50.840;4.346;2023-02-28T10:18:00;3.17;;;2.27;;
25409;SDS011;13339;50.840;4.346;2023-02-28T10:20:33;3.23;;;2.40;;
25409;SDS011;13339;50.840;4.346;2023-02-28T10:23:07;3.37;;;2.60;;
25409;SDS011;13339;50.840;4.346;2023-02-28T10:25:55;9.50;;;2.87;;
25409;SDS011;13339;50.840;4.346;2023-02-28T10:28:24;6.30;;;2.90;;
25409;SDS011;13339;50.840;4.346;2023-02-28T10:30:51;7.50;;;2.80;;
25409;SDS011;13339;50.840;4.346;2023-02-28T10:33:27;6.13;;;2.73;;
25409;SDS011;13339;50.840;4.346;2023-02-28T10:35:55;7.63;;;2.70;;
25409;SDS011;13339;50.840;4.346;2023-02-28T10:38:43;26.33;;;3.73;;
25409;SDS011;13339;50.840;4.346;2023-02-28T10:41:12;7.33;;;2.37;;
25409;SDS011;13339;50.840;4.346;2023-02-28T10:43:51;4.70;;;2.10;;
25409;SDS011;13339;50.840;4.346;2023-02-28T10:46:18;2.90;;;2.40;;
25409;SDS011;13339;50.840;4.346;2023-02-28T10:48:59;3.57;;;2.20;;
25409;SDS011;13339;50.840;4.346;2023-02-28T10:51:36;3.63;;;2.47;;
25409;SDS011;13339;50.840;4.346;2023-02-28T10:54:04;6.00;;;2.30;;
25409;SDS011;13339;50.840;4.346;2023-02-28T10:56:30;3.50;;;2.10;;
25409;SDS011;13339;50.840;4.346;2023-02-28T11:01:47;3.87;;;2.33;;
25409;SDS011;13339;50.840;4.346;2023-02-28T11:06:46;4.50;;;2.27;;
25409;SDS011;13339;50.840;4.346;2023-02-28T11:09:16;3.67;;;2.10;;
25409;SDS011;13339;50.840;4.346;2023-02-28T11:11:47;3.87;;;2.03;;
25409;SDS011;13339;50.840;4.346;2023-02-28T11:14:17;3.40;;;2.17;;
25409;SDS011;13339;50.840;4.346;2023-02-28T11:16:46;4.60;;;2.60;;
25409;SDS011;13339;50.840;4.346;2023-02-28T11:19:18;25.20;;;13.40;;
25409;SDS011;13339;50.840;4.346;2023-02-28T11:22:00;19.10;;;9.10;;
25409;SDS011;13339;50.840;4.346;2023-02-28T11:24:30;64.17;;;31.07;;
25409;SDS011;13339;50.840;4.346;2023-02-28T11:27:14;5.77;;;3.90;;
25409;SDS011;13339;50.840;4.346;2023-02-28T11:29:55;6.50;;;3.90;;
25409;SDS011;13339;50.840;4.346;2023-02-28T11:32:22;3.80;;;3.40;;
25409;SDS011;13339;50.840;4.346;2023-02-28T11:35:36;4.63;;;2.80;;
25409;SDS011;13339;50.840;4.346;2023-02-28T11:37:37;3.53;;;2.60;;
25409;SDS011;13339;50.840;4.346;2023-02-28T11:40:13;8.50;;;3.10;;
25409;SDS011;13339;50.840;4.346;2023-02-28T11:43:01;3.23;;;2.93;;
25409;SDS011;13339;50.840;4.346;2023-02-28T11:48:23;5.77;;;2.73;;
25409;SDS011;13339;50.840;4.346;2023-02-28T11:51:14;4.27;;;2.63;;
25409;SDS011;13339;50.840;4.346;2023-02-28T11:56:51;3.37;;;2.83;;
25409;SDS011;13339;50.840;4.346;2023-02-28T11:59:48;6.87;;;2.93;;
25409;SDS011;13339;50.840;4.346;2023-02-28T12:05:09;3.63;;;2.77;;
25409;SDS011;13339;50.840;4.346;2023-02-28T12:07:45;3.67;;;2.80;;
25409;SDS011;13339;50.840;4.346;2023-02-28T12:10:33;4.27;;;2.93;;
25409;SDS011;13339;50.840;4.346;2023-02-28T12:18:41;3.67;;;2.90;;
25409;SDS011;13339;50.840;4.346;2023-02-28T12:26:34;12.70;;;2.90;;
25409;SDS011;13339;50.840;4.346;2023-02-28T12:29:19;4.07;;;2.70;;
25409;SDS011;13339;50.840;4.346;2023-02-28T12:32:14;4.50;;;2.70;;
25409;SDS011;13339;50.840;4.346;2023-02-28T12:34:54;4.83;;;3.00;;
25409;SDS011;13339;50.840;4.346;2023-02-28T12:40:21;3.70;;;2.50;;
25409;SDS011;13339;50.840;4.346;2023-02-28T12:42:58;5.37;;;3.20;;
25409;SDS011;13339;50.840;4.346;2023-02-28T12:45:39;7.37;;;3.07;;
25409;SDS011;13339;50.840;4.346;2023-02-28T12:48:06;3.77;;;2.70;;
25409;SDS011;13339;50.840;4.346;2023-02-28T12:50:36;3.43;;;2.53;;
25409;SDS011;13339;50.840;4.346;2023-02-28T12:53:09;3.73;;;2.60;;
25409;SDS011;13339;50.840;4.346;2023-02-28T12:58:54;8.03;;;3.13;;
25409;SDS011;13339;50.840;4.346;2023-02-28T13:01:36;5.57;;;2.70;;
25409;SDS011;13339;50.840;4.346;2023-02-28T13:09:46;5.17;;;2.73;;
25409;SDS011;13339;50.840;4.346;2023-02-28T13:12:20;3.30;;;2.50;;
25409;SDS011;13339;50.840;4.346;2023-02-28T13:14:47;10.73;;;2.87;;
25409;SDS011;13339;50.840;4.346;2023-02-28T13:17:18;8.53;;;3.07;;
25409;SDS011;13339;50.840;4.346;2023-02-28T13:24:55;4.43;;;3.20;;
25409;SDS011;13339;50.840;4.346;2023-02-28T13:28:57;6.10;;;2.80;;
25409;SDS011;13339;50.840;4.346;2023-02-28T13:35:44;3.07;;;2.60;;
25409;SDS011;13339;50.840;4.346;2023-02-28T13:38:13;7.63;;;2.87;;
25409;SDS011;13339;50.840;4.346;2023-02-28T13:40:42;2.93;;;2.63;;
25409;SDS011;13339;50.840;4.346;2023-02-28T13:43:08;6.50;;;3.40;;
25409;SDS011;13339;50.840;4.346;2023-02-28T13:45:34;4.53;;;2.40;;
25409;SDS011;13339;50.840;4.346;2023-02-28T13:48:24;2.70;;;2.43;;
25409;SDS011;13339;50.840;4.346;2023-02-28T13:50:51;8.23;;;2.67;;
25409;SDS011;13339;50.840;4.346;2023-02-28T14:02:06;4.87;;;2.87;;
25409;SDS011;13339;50.840;4.346;2023-02-28T14:04:56;4.33;;;2.90;;
25409;SDS011;13339;50.840;4.346;2023-02-28T14:07:27;7.93;;;3.00;;
25409;SDS011;13339;50.840;4.346;2023-02-28T14:09:58;6.17;;;3.00;;
25409;SDS011;13339;50.840;4.346;2023-02-28T14:12:52;8.33;;;3.13;;
25409;SDS011;13339;50.840;4.346;2023-02-28T14:17:52;3.63;;;2.93;;
25409;SDS011;13339;50.840;4.346;2023-02-28T14:20:18;3.43;;;2.63;;
25409;SDS011;13339;50.840;4.346;2023-02-28T14:25:33;5.20;;;2.77;;
25409;SDS011;13339;50.840;4.346;2023-02-28T14:28:18;8.23;;;3.10;;
25409;SDS011;13339;50.840;4.346;2023-02-28T14:31:11;4.80;;;3.00;;
25409;SDS011;13339;50.840;4.346;2023-02-28T14:37:01;4.83;;;3.10;;
25409;SDS011;13339;50.840;4.346;2023-02-28T14:39:28;5.67;;;2.50;;
25409;SDS011;13339;50.840;4.346;2023-02-28T14:41:58;2.73;;;2.53;;
25409;SDS011;13339;50.840;4.346;2023-02-28T14:44:28;4.67;;;2.40;;
25409;SDS011;13339;50.840;4.346;2023-02-28T14:46:57;10.03;;;3.30;;
25409;SDS011;13339;50.840;4.346;2023-02-28T14:54:40;5.13;;;3.57;;
25409;SDS011;13339;50.840;4.346;2023-02-28T14:57:06;4.27;;;3.10;;
25409;SDS011;13339;50.840;4.346;2023-02-28T14:59:45;8.37;;;3.50;;
25409;SDS011;13339;50.840;4.346;2023-02-28T15:04:57;4.90;;;3.13;;
25409;SDS011;13339;50.840;4.346;2023-02-28T15:07:24;7.97;;;3.40;;
25409;SDS011;13339;50.840;4.346;2023-02-28T15:15:17;4.70;;;3.20;;
25409;SDS011;13339;50.840;4.346;2023-02-28T15:17:45;8.70;;;3.17;;
25409;SDS011;13339;50.840;4.346;2023-02-28T15:20:15;9.17;;;3.47;;
25409;SDS011;13339;50.840;4.346;2023-02-28T15:22:43;4.20;;;3.00;;
25409;SDS011;13339;50.840;4.346;2023-02-28T15:25:11;3.83;;;3.37;;
25409;SDS011;13339;50.840;4.346;2023-02-28T15:27:44;5.90;;;3.47;;
25409;SDS011;13339;50.840;4.346;2023-02-28T15:30:16;7.37;;;3.47;;
25409;SDS011;13339;50.840;4.346;2023-02-28T15:33:05;9.43;;;3.37;;
25409;SDS011;13339;50.840;4.346;2023-02-28T15:35:45;4.97;;;3.43;;
25409;SDS011;13339;50.840;4.346;2023-02-28T15:38:26;4.40;;;3.60;;
25409;SDS011;13339;50.840;4.346;2023-02-28T15:45:48;4.20;;;3.43;;
25409;SDS011;13339;50.840;4.346;2023-02-28T15:48:25;4.63;;;3.00;;
25409;SDS011;13339;50.840;4.346;2023-02-28T15:51:36;6.73;;;3.23;;
25409;SDS011;13339;50.840;4.346;2023-02-28T15:53:56;6.07;;;3.70;;
25409;SDS011;13339;50.840;4.346;2023-02-28T15:56:31;12.87;;;3.77;;
25409;SDS011;13339;50.840;4.346;2023-02-28T15:59:01;7.40;;;3.43;;
25409;SDS011;13339;50.840;4.346;2023-02-28T16:01:34;9.57;;;4.30;;
25409;SDS011;13339;50.840;4.346;2023-02-28T16:04:03;3.80;;;3.40;;
25409;SDS011;13339;50.840;4.346;2023-02-28T16:09:25;6.70;;;4.17;;
25409;SDS011;13339;50.840;4.346;2023-02-28T16:11:52;4.77;;;3.43;;
25409;SDS011;13339;50.840;4.346;2023-02-28T16:14:21;5.27;;;3.13;;
25409;SDS011;13339;50.840;4.346;2023-02-28T16:16:49;3.77;;;3.37;;
25409;SDS011;13339;50.840;4.346;2023-02-28T16:19:17;4.33;;;3.37;;
25409;SDS011;13339;50.840;4.346;2023-02-28T16:21:44;6.93;;;3.23;;
25409;SDS011;13339;50.840;4.346;2023-02-28T16:24:10;6.53;;;3.47;;
25409;SDS011;13339;50.840;4.346;2023-02-28T16:26:37;10.50;;;3.47;;
25409;SDS011;13339;50.840;4.346;2023-02-28T16:29:04;6.63;;;3.90;;
25409;SDS011;13339;50.840;4.346;2023-02-28T16:31:32;6.00;;;3.40;;
25409;SDS011;13339;50.840;4.346;2023-02-28T16:34:01;5.10;;;3.57;;
25409;SDS011;13339;50.840;4.346;2023-02-28T16:36:28;6.33;;;3.10;;
25409;SDS011;13339;50.840;4.346;2023-02-28T16:38:54;7.60;;;3.43;;
25409;SDS011;13339;50.840;4.346;2023-02-28T16:41:21;5.37;;;2.80;;
25409;SDS011;13339;50.840;4.346;2023-02-28T16:43:51;4.07;;;3.23;;
25409;SDS011;13339;50.840;4.346;2023-02-28T16:46:23;4.40;;;3.27;;
25409;SDS011;13339;50.840;4.346;2023-02-28T16:48:50;4.97;;;3.40;;
25409;SDS011;13339;50.840;4.346;2023-02-28T16:51:16;7.97;;;3.40;;
25409;SDS011;13339;50.840;4.346;2023-02-28T16:53:43;4.40;;;3.13;;
25409;SDS011;13339;50.840;4.346;2023-02-28T16:56:17;5.40;;;3.13;;
25409;SDS011;13339;50.840;4.346;2023-02-28T16:58:47;9.33;;;3.47;;
25409;SDS011;13339;50.840;4.346;2023-02-28T17:01:14;7.23;;;3.40;;
25409;SDS011;13339;50.840;4.346;2023-02-28T17:03:40;8.10;;;3.43;;
25409;SDS011;13339;50.840;4.346;2023-02-28T17:06:17;7.40;;;3.20;;
25409;SDS011;13339;50.840;4.346;2023-02-28T17:08:47;7.23;;;3.43;;
25409;SDS011;13339;50.840;4.346;2023-02-28T17:11:15;4.97;;;3.33;;
25409;SDS011;13339;50.840;4.346;2023-02-28T17:13:42;5.00;;;3.40;;
25409;SDS011;13339;50.840;4.346;2023-02-28T17:16:29;11.13;;;3.40;;
25409;SDS011;13339;50.840;4.346;2023-02-28T17:18:59;7.93;;;3.97;;